Time;durP1;ratioP1;P1;durP2;ratioP2;P2;SDS_P1;SDS_P2;PMS_P1;PMS_P2;Temp;Humidity;BMP_temperature;BMP_pressure;BME280_temperature;BME280_humidity;BME280_pressure;Samples;Min_cycle;Max_cycle;Signal;HPM_P1;HPM_P2
2021/01/18 00:01:05;;;;;;;;;;;7.40;52.40;;;;;;5105492;28;19919;-65
2021/01/18 00:03:31;;;;;;;;;;;7.40;52.90;;;;;;5105525;28;19900;-66
2021/01/18 00:05:57;;;;;;;;;;;7.40;52.20;;;;;;5105413;28;19931;-69
2021/01/18 00:08:22;;;;;;;;;;;7.40;52.10;;;;;;5105476;28;20192;-68
2021/01/18 00:10:48;;;;;;;;;;;7.40;52.70;;;;;;5105375;28;19907;-66
2021/01/18 00:13:13;;;;;;;;;;;7.40;52.40;;;;;;5105300;28;19900;-67
2021/01/18 00:15:39;;;;;;;;;;;7.40;52.50;;;;;;5105227;28;20236;-67
2021/01/18 00:18:05;;;;;;;;;;;7.40;52.60;;;;;;5105245;28;20123;-65
2021/01/18 00:20:30;;;;;;;;;;;7.40;52.40;;;;;;5105138;28;20204;-66
2021/01/18 00:22:56;;;;;;;;;;;7.40;52.90;;;;;;5104953;28;19919;-64
2021/01/18 00:25:23;;;;;;;;;;;7.40;52.40;;;;;;5105112;28;19900;-66
2021/01/18 00:27:51;;;;;;;;;;;7.40;53.20;;;;;;5105061;28;20204;-67
2021/01/18 00:30:17;;;;;;;;;;;7.30;52.30;;;;;;5104958;28;20216;-66
2021/01/18 00:32:42;;;;;;;;;;;7.30;52.50;;;;;;5104978;28;19900;-68
2021/01/18 00:35:09;;;;;;;;;;;7.30;52.20;;;;;;5103696;28;19915;-66
2021/01/18 00:37:44;;;;;;;;;;;7.30;52.60;;;;;;5104826;28;19957;-68
2021/01/18 00:40:11;;;;;;;;;;;7.30;52.40;;;;;;5104815;28;19900;-66
2021/01/18 00:42:37;;;;;;;;;;;7.30;52.60;;;;;;5104665;28;19911;-65
2021/01/18 00:45:04;;;;;;;;;;;7.30;53.10;;;;;;5104712;28;20391;-67
2021/01/18 00:47:29;;;;;;;;;;;7.30;52.50;;;;;;5104635;28;19900;-68
2021/01/18 00:49:55;;;;;;;;;;;7.30;52.50;;;;;;5104655;28;19923;-65
2021/01/18 00:52:20;;;;;;;;;;;7.30;52.40;;;;;;5104633;28;19983;-68
2021/01/18 00:54:46;;;;;;;;;;;7.30;52.00;;;;;;5104560;28;19908;-64
2021/01/18 00:57:11;;;;;;;;;;;7.30;52.60;;;;;;5104474;28;20192;-67
2021/01/18 00:59:37;;;;;;;;;;;7.30;52.20;;;;;;5104437;28;19907;-68
2021/01/18 01:02:02;;;;;;;;;;;7.30;52.30;;;;;;5104374;28;19938;-66
2021/01/18 01:04:28;;;;;;;;;;;7.30;52.20;;;;;;5104337;28;19908;-67
2021/01/18 01:06:54;;;;;;;;;;;7.30;52.30;;;;;;5104270;28;19908;-67
2021/01/18 01:09:19;;;;;;;;;;;7.30;52.50;;;;;;5104268;28;19907;-68
2021/01/18 01:11:45;;;;;;;;;;;7.30;52.40;;;;;;5104211;28;19954;-66
2021/01/18 01:14:11;;;;;;;;;;;7.30;52.50;;;;;;5104185;28;19914;-66
2021/01/18 01:16:37;;;;;;;;;;;7.20;52.10;;;;;;5104096;28;19936;-68
2021/01/18 01:19:03;;;;;;;;;;;7.20;51.90;;;;;;5104073;28;19907;-67
2021/01/18 01:21:29;;;;;;;;;;;7.30;51.90;;;;;;5103912;28;19911;-65
2021/01/18 01:23:54;;;;;;;;;;;7.30;52.50;;;;;;5103828;28;19918;-66
2021/01/18 01:26:20;;;;;;;;;;;7.30;52.60;;;;;;5103881;28;19939;-65
2021/01/18 01:28:45;;;;;;;;;;;7.30;52.30;;;;;;5103412;28;19931;-68
2021/01/18 01:31:12;;;;;;;;;;;7.30;51.90;;;;;;5103828;28;19975;-66
2021/01/18 01:33:37;;;;;;;;;;;7.20;51.90;;;;;;5103746;28;19907;-67
2021/01/18 01:36:03;;;;;;;;;;;7.20;52.40;;;;;;5103728;28;19943;-66
2021/01/18 01:38:29;;;;;;;;;;;7.20;52.20;;;;;;5103709;28;19908;-66
2021/01/18 01:40:54;;;;;;;;;;;7.20;52.30;;;;;;5103799;28;20191;-67
2021/01/18 01:43:20;;;;;;;;;;;7.20;52.30;;;;;;5103666;28;20351;-67
2021/01/18 01:45:46;;;;;;;;;;;7.20;52.30;;;;;;5103774;28;19907;-65
2021/01/18 01:48:11;;;;;;;;;;;7.20;52.00;;;;;;5103572;28;20217;-66
2021/01/18 01:50:37;;;;;;;;;;;7.20;52.40;;;;;;5103441;28;19978;-68
2021/01/18 01:53:15;;;;;;;;;;;7.20;52.00;;;;;;5103402;28;19906;-65
2021/01/18 01:55:41;;;;;;;;;;;7.20;52.10;;;;;;5103413;28;20116;-65
2021/01/18 01:58:07;;;;;;;;;;;7.20;52.40;;;;;;5103296;28;19906;-67
2021/01/18 02:00:36;;;;;;;;;;;7.20;51.90;;;;;;5103223;28;20158;-64
2021/01/18 02:03:05;;;;;;;;;;;7.20;52.60;;;;;;5103314;28;19900;-66
2021/01/18 02:05:30;;;;;;;;;;;7.20;51.90;;;;;;5103192;28;19912;-67
2021/01/18 02:08:03;;;;;;;;;;;7.20;52.10;;;;;;5103156;28;20258;-65
2021/01/18 02:10:29;;;;;;;;;;;7.20;51.70;;;;;;5103168;28;20111;-67
2021/01/18 02:13:18;;;;;;;;;;;7.20;52.10;;;;;;5103069;28;19907;-66
2021/01/18 02:16:03;;;;;;;;;;;7.20;52.10;;;;;;5099927;28;19977;-64
2021/01/18 02:18:33;;;;;;;;;;;7.10;51.70;;;;;;5103003;28;19915;-65
2021/01/18 02:21:04;;;;;;;;;;;7.10;52.40;;;;;;5102921;28;19911;-65
2021/01/18 02:23:36;;;;;;;;;;;7.10;52.40;;;;;;5102741;28;19912;-68
2021/01/18 02:26:08;;;;;;;;;;;7.10;52.00;;;;;;5102927;28;19900;-67
2021/01/18 02:28:33;;;;;;;;;;;7.10;51.80;;;;;;5102835;28;19912;-67
2021/01/18 02:31:02;;;;;;;;;;;7.10;51.80;;;;;;5102822;28;20096;-67
2021/01/18 02:33:28;;;;;;;;;;;7.20;51.90;;;;;;5102765;28;19935;-68
2021/01/18 02:36:12;;;;;;;;;;;7.10;51.90;;;;;;5102773;28;19915;-65
2021/01/18 02:38:37;;;;;;;;;;;7.20;52.00;;;;;;5101993;28;19907;-68
2021/01/18 02:41:10;;;;;;;;;;;7.10;51.80;;;;;;5102510;28;19911;-64
2021/01/18 02:43:39;;;;;;;;;;;7.10;52.20;;;;;;5102721;28;19919;-65
2021/01/18 02:46:05;;;;;;;;;;;7.10;52.00;;;;;;5102651;28;19900;-65
2021/01/18 02:48:31;;;;;;;;;;;7.10;52.30;;;;;;5102631;28;20196;-68
2021/01/18 02:51:01;;;;;;;;;;;7.10;51.90;;;;;;5102561;28;19907;-67
2021/01/18 02:53:27;;;;;;;;;;;7.10;51.90;;;;;;5102505;28;19938;-67
2021/01/18 02:55:53;;;;;;;;;;;7.10;51.80;;;;;;5102549;28;19908;-64
2021/01/18 02:58:19;;;;;;;;;;;7.10;51.90;;;;;;5102531;28;19945;-66
2021/01/18 03:00:49;;;;;;;;;;;7.10;51.80;;;;;;5102475;28;19907;-65
2021/01/18 03:03:29;;;;;;;;;;;7.10;51.70;;;;;;5102554;28;19904;-63
2021/01/18 03:05:54;;;;;;;;;;;7.10;51.70;;;;;;5102504;28;19908;-67
2021/01/18 03:08:22;;;;;;;;;;;7.10;51.70;;;;;;5102474;28;19930;-68
2021/01/18 03:10:47;;;;;;;;;;;7.10;51.70;;;;;;5102412;28;19900;-67
2021/01/18 03:13:13;;;;;;;;;;;7.10;51.80;;;;;;5101272;28;19915;-65
2021/01/18 03:15:41;;;;;;;;;;;7.10;51.60;;;;;;5102392;28;19908;-66
2021/01/18 03:18:08;;;;;;;;;;;7.00;51.60;;;;;;5102363;28;19914;-66
2021/01/18 03:20:34;;;;;;;;;;;7.00;51.70;;;;;;5102242;28;19907;-66
2021/01/18 03:23:06;;;;;;;;;;;7.00;51.90;;;;;;5102063;28;19912;-68
2021/01/18 03:25:44;;;;;;;;;;;7.00;51.60;;;;;;5102341;28;19904;-67
2021/01/18 03:28:10;;;;;;;;;;;7.00;51.90;;;;;;5102349;28;19975;-65
2021/01/18 03:30:35;;;;;;;;;;;7.00;51.70;;;;;;5102251;28;19907;-66
2021/01/18 03:33:01;;;;;;;;;;;7.00;51.60;;;;;;5102220;28;19936;-65
2021/01/18 03:35:28;;;;;;;;;;;7.00;51.60;;;;;;5102204;28;19900;-67
2021/01/18 03:37:55;;;;;;;;;;;7.00;51.30;;;;;;5102192;28;20130;-68
2021/01/18 03:40:21;;;;;;;;;;;7.00;51.80;;;;;;5102201;28;19915;-64
2021/01/18 03:42:53;;;;;;;;;;;7.00;51.80;;;;;;5102060;28;19967;-67
2021/01/18 03:45:19;;;;;;;;;;;7.00;51.50;;;;;;5102114;28;20085;-67
2021/01/18 03:47:44;;;;;;;;;;;7.00;51.80;;;;;;5102082;28;19986;-65
2021/01/18 03:50:11;;;;;;;;;;;6.90;51.70;;;;;;5102712;28;19907;-66
2021/01/18 03:52:37;;;;;;;;;;;7.00;51.40;;;;;;5105797;28;19903;-68
2021/01/18 03:55:02;;;;;;;;;;;6.90;51.80;;;;;;5105699;28;20131;-67
2021/01/18 03:57:28;;;;;;;;;;;7.00;51.60;;;;;;5105710;28;19907;-66
2021/01/18 03:59:53;;;;;;;;;;;7.00;51.10;;;;;;5105641;28;20233;-66
2021/01/18 04:02:19;;;;;;;;;;;7.00;51.40;;;;;;5105500;28;19948;-67
2021/01/18 04:04:45;;;;;;;;;;;7.00;51.50;;;;;;5105516;28;19900;-64
2021/01/18 04:07:11;;;;;;;;;;;6.90;51.70;;;;;;5105505;28;19982;-65
2021/01/18 04:09:36;;;;;;;;;;;6.90;51.70;;;;;;5105383;28;19922;-66
2021/01/18 04:12:03;;;;;;;;;;;6.90;51.40;;;;;;5105401;28;19942;-66
2021/01/18 04:14:28;;;;;;;;;;;6.90;51.30;;;;;;5105334;28;19931;-66
2021/01/18 04:16:54;;;;;;;;;;;7.00;51.50;;;;;;5105273;28;19904;-66
2021/01/18 04:19:19;;;;;;;;;;;6.90;51.20;;;;;;5105262;28;19967;-68
2021/01/18 04:21:45;;;;;;;;;;;6.90;51.20;;;;;;5105109;28;19927;-65
2021/01/18 04:24:11;;;;;;;;;;;6.90;51.20;;;;;;5105024;28;19943;-66
2021/01/18 04:26:38;;;;;;;;;;;6.90;51.40;;;;;;5105149;28;19900;-66
2021/01/18 04:29:03;;;;;;;;;;;6.90;51.20;;;;;;5105079;28;20138;-66
2021/01/18 04:31:29;;;;;;;;;;;6.90;51.30;;;;;;5105026;28;19986;-68
2021/01/18 04:33:54;;;;;;;;;;;6.90;51.40;;;;;;5104928;28;19923;-66
2021/01/18 04:36:20;;;;;;;;;;;6.90;51.30;;;;;;5104993;28;19908;-66
2021/01/18 04:38:45;;;;;;;;;;;6.90;51.30;;;;;;5104876;28;20223;-67
2021/01/18 04:41:11;;;;;;;;;;;6.90;51.30;;;;;;5104795;28;19918;-66
2021/01/18 04:43:40;;;;;;;;;;;6.80;51.40;;;;;;5104722;28;20156;-68
2021/01/18 04:46:08;;;;;;;;;;;6.80;51.70;;;;;;5104741;28;19904;-66
2021/01/18 04:48:35;;;;;;;;;;;6.90;51.50;;;;;;5104744;28;19908;-65
2021/01/18 04:51:01;;;;;;;;;;;6.90;51.30;;;;;;5104619;28;19915;-67
2021/01/18 04:53:29;;;;;;;;;;;6.90;51.20;;;;;;5104557;28;19967;-67
2021/01/18 04:56:02;;;;;;;;;;;6.80;51.30;;;;;;5104572;28;19900;-68
2021/01/18 04:58:29;;;;;;;;;;;6.90;51.30;;;;;;5104763;28;19921;-66
2021/01/18 05:00:57;;;;;;;;;;;6.90;51.30;;;;;;5104328;28;19904;-68
2021/01/18 05:03:23;;;;;;;;;;;6.80;51.30;;;;;;5103491;28;19900;-64
2021/01/18 05:05:52;;;;;;;;;;;6.80;51.20;;;;;;5104352;28;20215;-68
2021/01/18 05:08:17;;;;;;;;;;;6.90;51.30;;;;;;5104549;28;19900;-67
2021/01/18 05:10:44;;;;;;;;;;;6.90;51.40;;;;;;5104250;28;20247;-66
2021/01/18 05:13:10;;;;;;;;;;;6.80;51.20;;;;;;5104260;28;19907;-67
2021/01/18 05:15:36;;;;;;;;;;;6.80;51.50;;;;;;5104129;28;19904;-66
2021/01/18 05:18:05;;;;;;;;;;;6.80;51.20;;;;;;5104092;28;19906;-68
2021/01/18 05:20:31;;;;;;;;;;;6.80;51.40;;;;;;5104017;28;19908;-66
2021/01/18 05:22:57;;;;;;;;;;;6.80;51.00;;;;;;5103810;28;19912;-68
2021/01/18 05:25:23;;;;;;;;;;;6.80;51.90;;;;;;5104003;28;20100;-66
2021/01/18 05:28:08;;;;;;;;;;;6.80;51.50;;;;;;5103951;28;19908;-66
2021/01/18 05:30:34;;;;;;;;;;;6.80;51.00;;;;;;5103876;28;20284;-66
2021/01/18 05:33:09;;;;;;;;;;;6.80;51.40;;;;;;5103865;28;19900;-66
2021/01/18 05:35:36;;;;;;;;;;;6.80;51.30;;;;;;5103773;28;20211;-64
2021/01/18 05:38:02;;;;;;;;;;;6.80;51.00;;;;;;5103728;28;20092;-67
2021/01/18 05:40:28;;;;;;;;;;;6.80;51.00;;;;;;5103664;28;19900;-68
2021/01/18 05:42:59;;;;;;;;;;;6.80;51.20;;;;;;5103609;28;20358;-67
2021/01/18 05:45:35;;;;;;;;;;;6.80;51.20;;;;;;5103567;28;19900;-67
2021/01/18 05:48:02;;;;;;;;;;;6.80;51.20;;;;;;5103608;28;19907;-67
2021/01/18 05:50:28;;;;;;;;;;;6.80;51.30;;;;;;5103498;28;20329;-69
2021/01/18 05:52:54;;;;;;;;;;;6.80;51.40;;;;;;5103433;28;19915;-68
2021/01/18 05:55:21;;;;;;;;;;;6.70;51.30;;;;;;5103437;28;20422;-68
2021/01/18 05:57:53;;;;;;;;;;;6.80;51.10;;;;;;5103350;28;19915;-68
2021/01/18 06:00:24;;;;;;;;;;;6.70;51.10;;;;;;5103322;28;19927;-65
2021/01/18 06:02:50;;;;;;;;;;;6.70;51.10;;;;;;5103254;28;19943;-65
2021/01/18 06:05:16;;;;;;;;;;;6.80;51.00;;;;;;5103228;28;19915;-65
2021/01/18 06:07:42;;;;;;;;;;;6.70;51.10;;;;;;5103235;28;19974;-66
2021/01/18 06:10:07;;;;;;;;;;;6.70;51.10;;;;;;5103116;28;19976;-67
2021/01/18 06:12:34;;;;;;;;;;;6.70;50.90;;;;;;5103106;28;19914;-63
2021/01/18 06:15:13;;;;;;;;;;;6.70;51.00;;;;;;5102955;28;19899;-66
2021/01/18 06:17:42;;;;;;;;;;;6.70;50.90;;;;;;5103028;28;20226;-65
2021/01/18 06:20:08;;;;;;;;;;;6.70;51.10;;;;;;5102961;28;19900;-65
2021/01/18 06:22:35;;;;;;;;;;;6.70;51.20;;;;;;5102688;28;20227;-67
2021/01/18 06:25:10;;;;;;;;;;;6.70;51.00;;;;;;5102891;28;19927;-64
2021/01/18 06:27:36;;;;;;;;;;;6.70;50.90;;;;;;5102881;28;19908;-64
2021/01/18 06:30:03;;;;;;;;;;;6.70;51.20;;;;;;5102881;28;20280;-66
2021/01/18 06:32:29;;;;;;;;;;;6.70;51.20;;;;;;5102866;28;20124;-67
2021/01/18 06:34:59;;;;;;;;;;;6.70;50.90;;;;;;5103071;28;19928;-65
2021/01/18 06:37:29;;;;;;;;;;;6.70;50.90;;;;;;5102992;28;20088;-66
2021/01/18 06:40:02;;;;;;;;;;;6.70;51.00;;;;;;5102746;28;19900;-66
2021/01/18 06:42:28;;;;;;;;;;;6.70;51.00;;;;;;5102637;28;19942;-68
2021/01/18 06:44:54;;;;;;;;;;;6.70;51.00;;;;;;5102711;28;19908;-66
2021/01/18 06:47:32;;;;;;;;;;;6.70;51.20;;;;;;5102680;28;20300;-68
2021/01/18 06:49:58;;;;;;;;;;;6.70;51.30;;;;;;5102599;28;19907;-66
2021/01/18 06:52:25;;;;;;;;;;;6.70;51.00;;;;;;5102642;28;19908;-65
2021/01/18 06:54:56;;;;;;;;;;;6.70;51.30;;;;;;5102634;28;20191;-64
2021/01/18 06:57:42;;;;;;;;;;;6.70;51.20;;;;;;5102680;28;19963;-68
2021/01/18 07:00:09;;;;;;;;;;;6.70;51.00;;;;;;5091291;28;19900;-69
2021/01/18 07:02:38;;;;;;;;;;;6.70;50.90;;;;;;5102487;28;19938;-66
2021/01/18 07:05:05;;;;;;;;;;;6.70;51.50;;;;;;5102529;28;19908;-65
2021/01/18 07:07:32;;;;;;;;;;;6.70;50.90;;;;;;5102534;28;20146;-66
2021/01/18 07:10:04;;;;;;;;;;;6.70;50.90;;;;;;5102440;28;19906;-66
2021/01/18 07:12:30;;;;;;;;;;;6.70;50.80;;;;;;5102360;28;19907;-67
2021/01/18 07:15:05;;;;;;;;;;;6.70;50.70;;;;;;5102441;28;19900;-66
2021/01/18 07:17:43;;;;;;;;;;;6.60;50.70;;;;;;5102462;28;19962;-65
2021/01/18 07:20:17;;;;;;;;;;;6.60;51.00;;;;;;5102376;28;20005;-66
2021/01/18 07:23:02;;;;;;;;;;;6.70;50.70;;;;;;5102095;28;19912;-64
2021/01/18 07:25:33;;;;;;;;;;;6.70;50.60;;;;;;5103456;28;19900;-67
2021/01/18 07:28:01;;;;;;;;;;;6.60;50.80;;;;;;5106319;28;19908;-66
2021/01/18 07:30:36;;;;;;;;;;;6.70;50.90;;;;;;5106263;28;19946;-66
2021/01/18 07:33:13;;;;;;;;;;;6.70;50.90;;;;;;5106438;28;19916;-65
2021/01/18 07:35:40;;;;;;;;;;;6.70;50.60;;;;;;5106149;28;19908;-67
2021/01/18 07:38:09;;;;;;;;;;;6.70;50.70;;;;;;5106033;28;20014;-65
2021/01/18 07:40:35;;;;;;;;;;;6.70;50.70;;;;;;5106016;28;19900;-69
2021/01/18 07:43:00;;;;;;;;;;;6.70;50.50;;;;;;5106028;28;20113;-66
2021/01/18 07:45:26;;;;;;;;;;;6.70;50.80;;;;;;5106206;28;19951;-68
2021/01/18 07:47:54;;;;;;;;;;;6.70;50.70;;;;;;5105927;28;19900;-68
2021/01/18 07:50:33;;;;;;;;;;;6.70;50.60;;;;;;5105864;28;19900;-68
2021/01/18 07:53:00;;;;;;;;;;;6.70;50.60;;;;;;5105857;28;20204;-67
2021/01/18 07:55:25;;;;;;;;;;;6.70;50.80;;;;;;5104556;28;19907;-67
2021/01/18 07:57:51;;;;;;;;;;;6.70;50.70;;;;;;5105696;28;20081;-67
2021/01/18 08:00:17;;;;;;;;;;;6.80;50.50;;;;;;5105679;28;19941;-67
2021/01/18 08:02:45;;;;;;;;;;;6.80;50.50;;;;;;5105574;28;19941;-68
2021/01/18 08:05:20;;;;;;;;;;;6.80;50.40;;;;;;5105573;28;19971;-68
2021/01/18 08:07:59;;;;;;;;;;;6.90;50.40;;;;;;5105545;28;19912;-66
2021/01/18 08:10:44;;;;;;;;;;;6.90;50.20;;;;;;5105524;28;19983;-68
2021/01/18 08:13:29;;;;;;;;;;;6.90;50.40;;;;;;5105328;28;19900;-67
2021/01/18 08:15:55;;;;;;;;;;;6.90;50.40;;;;;;5105402;28;19900;-69
2021/01/18 08:18:27;;;;;;;;;;;6.90;50.20;;;;;;5105354;28;19957;-65
2021/01/18 08:20:53;;;;;;;;;;;7.00;50.50;;;;;;5105181;28;20131;-65
2021/01/18 08:23:37;;;;;;;;;;;7.10;50.00;;;;;;5105087;28;19923;-68
2021/01/18 08:26:05;;;;;;;;;;;7.10;50.00;;;;;;5105207;28;19975;-66
2021/01/18 08:28:33;;;;;;;;;;;7.10;50.10;;;;;;5105169;28;20124;-66
2021/01/18 08:30:59;;;;;;;;;;;7.10;50.30;;;;;;5105114;28;19906;-66
2021/01/18 08:33:25;;;;;;;;;;;7.10;50.20;;;;;;5105021;28;19900;-66
2021/01/18 08:35:52;;;;;;;;;;;7.10;50.00;;;;;;5104910;28;19908;-64
2021/01/18 08:38:28;;;;;;;;;;;7.10;50.30;;;;;;5103755;28;20323;-69
2021/01/18 08:41:01;;;;;;;;;;;7.10;50.30;;;;;;5104918;28;19975;-64
2021/01/18 08:43:43;;;;;;;;;;;7.10;50.20;;;;;;5104836;28;19935;-67
2021/01/18 08:46:29;;;;;;;;;;;7.10;50.30;;;;;;5104865;28;19946;-67
2021/01/18 08:49:13;;;;;;;;;;;7.20;50.40;;;;;;5104691;28;19907;-67
2021/01/18 08:51:45;;;;;;;;;;;7.20;50.50;;;;;;5104701;28;19931;-66
2021/01/18 08:54:11;;;;;;;;;;;7.20;50.20;;;;;;5104668;28;20003;-65
2021/01/18 08:56:39;;;;;;;;;;;7.20;50.10;;;;;;5104588;28;19908;-67
2021/01/18 08:59:14;;;;;;;;;;;7.30;50.10;;;;;;5104517;28;19900;-68
2021/01/18 09:01:39;;;;;;;;;;;7.30;50.10;;;;;;5104480;28;19904;-67
2021/01/18 09:04:08;;;;;;;;;;;7.30;50.40;;;;;;5104487;28;19973;-63
2021/01/18 09:06:35;;;;;;;;;;;7.30;50.40;;;;;;5104040;28;19943;-63
2021/01/18 09:09:01;;;;;;;;;;;7.30;50.50;;;;;;5104404;28;20073;-66
2021/01/18 09:11:27;;;;;;;;;;;7.30;50.30;;;;;;5104306;28;19900;-67
2021/01/18 09:13:53;;;;;;;;;;;7.30;50.60;;;;;;5104298;28;19951;-67
2021/01/18 09:16:18;;;;;;;;;;;7.40;51.50;;;;;;5104180;28;19915;-65
2021/01/18 09:18:44;;;;;;;;;;;7.50;50.30;;;;;;5104132;28;19939;-65
2021/01/18 09:21:09;;;;;;;;;;;7.50;50.40;;;;;;5104036;28;19904;-69
2021/01/18 09:23:35;;;;;;;;;;;7.50;50.40;;;;;;5103862;28;20259;-64
2021/01/18 09:26:05;;;;;;;;;;;7.50;50.80;;;;;;5104062;28;19908;-67
2021/01/18 09:28:31;;;;;;;;;;;7.50;50.50;;;;;;5103985;28;19908;-66
2021/01/18 09:31:05;;;;;;;;;;;7.50;50.50;;;;;;5103921;28;19906;-67
2021/01/18 09:33:31;;;;;;;;;;;7.50;50.70;;;;;;5103910;28;19900;-66
2021/01/18 09:35:57;;;;;;;;;;;7.50;50.40;;;;;;5103780;28;19900;-67
2021/01/18 09:38:22;;;;;;;;;;;7.50;50.70;;;;;;5103765;28;19900;-67
2021/01/18 09:40:48;;;;;;;;;;;7.50;51.20;;;;;;5103721;28;19912;-66
2021/01/18 09:43:18;;;;;;;;;;;7.60;50.60;;;;;;5103712;28;19929;-66
2021/01/18 09:45:43;;;;;;;;;;;7.50;50.50;;;;;;5103678;28;19940;-67
2021/01/18 09:48:10;;;;;;;;;;;7.60;50.70;;;;;;5103194;28;20073;-66
2021/01/18 09:50:36;;;;;;;;;;;7.70;50.60;;;;;;5103760;28;19938;-68
2021/01/18 09:53:11;;;;;;;;;;;7.70;50.70;;;;;;5103582;28;19908;-66
2021/01/18 09:55:40;;;;;;;;;;;7.70;50.70;;;;;;5103503;28;19926;-67
2021/01/18 09:58:09;;;;;;;;;;;7.70;50.60;;;;;;5103617;28;19908;-67
2021/01/18 10:00:40;;;;;;;;;;;7.60;50.40;;;;;;5103383;28;19953;-68
2021/01/18 10:03:06;;;;;;;;;;;7.60;50.30;;;;;;5103297;28;19911;-65
2021/01/18 10:05:37;;;;;;;;;;;7.60;51.10;;;;;;5103345;28;19923;-67
2021/01/18 10:08:09;;;;;;;;;;;7.60;50.90;;;;;;5103208;28;19900;-64
2021/01/18 10:10:45;;;;;;;;;;;7.70;51.40;;;;;;5103527;28;19931;-67
2021/01/18 10:13:17;;;;;;;;;;;7.70;51.20;;;;;;5103152;28;19912;-67
2021/01/18 10:15:42;;;;;;;;;;;7.80;51.20;;;;;;5103143;28;19935;-65
2021/01/18 10:18:26;;;;;;;;;;;7.90;51.40;;;;;;5103057;28;19950;-67
2021/01/18 10:20:52;;;;;;;;;;;7.80;51.70;;;;;;5103039;28;19907;-67
2021/01/18 10:23:18;;;;;;;;;;;7.80;50.60;;;;;;5102903;28;19916;-68
2021/01/18 10:25:43;;;;;;;;;;;7.90;50.80;;;;;;5102927;28;20123;-64
2021/01/18 10:28:16;;;;;;;;;;;7.90;50.50;;;;;;5102915;28;19935;-67
2021/01/18 10:30:41;;;;;;;;;;;7.80;50.60;;;;;;5102979;28;19908;-67
2021/01/18 10:33:14;;;;;;;;;;;7.90;50.90;;;;;;5102859;28;19971;-66
2021/01/18 10:35:39;;;;;;;;;;;7.90;50.60;;;;;;5102943;28;19904;-68
2021/01/18 10:38:22;;;;;;;;;;;7.90;50.90;;;;;;5102840;28;20127;-64
2021/01/18 10:41:02;;;;;;;;;;;8.00;50.80;;;;;;5102986;28;19907;-68
2021/01/18 10:43:28;;;;;;;;;;;8.00;50.70;;;;;;5101526;28;19900;-67
2021/01/18 10:45:54;;;;;;;;;;;8.10;50.60;;;;;;5102678;28;19915;-65
2021/01/18 10:48:25;;;;;;;;;;;8.10;50.50;;;;;;5102695;28;19904;-68
2021/01/18 10:50:54;;;;;;;;;;;8.10;50.50;;;;;;5102713;28;19904;-66
2021/01/18 10:53:25;;;;;;;;;;;8.10;50.50;;;;;;5102705;28;19900;-66
2021/01/18 10:55:51;;;;;;;;;;;8.10;50.60;;;;;;5102664;28;20232;-67
2021/01/18 10:58:26;;;;;;;;;;;8.20;50.40;;;;;;5102595;28;19907;-67
2021/01/18 11:00:52;;;;;;;;;;;8.20;50.30;;;;;;5104465;28;19922;-65
2021/01/18 11:03:22;;;;;;;;;;;8.10;51.00;;;;;;5106794;28;20192;-67
2021/01/18 11:05:47;;;;;;;;;;;8.10;50.80;;;;;;5106718;28;19941;-69
2021/01/18 11:08:13;;;;;;;;;;;8.10;50.70;;;;;;5106690;28;19911;-66
2021/01/18 11:10:40;;;;;;;;;;;8.10;50.80;;;;;;5106639;28;19915;-67
2021/01/18 11:13:13;;;;;;;;;;;8.20;50.80;;;;;;5106582;28;19940;-65
2021/01/18 11:15:40;;;;;;;;;;;8.20;50.80;;;;;;5106576;28;19908;-68
2021/01/18 11:18:07;;;;;;;;;;;8.20;50.50;;;;;;5106486;28;19971;-67
2021/01/18 11:20:32;;;;;;;;;;;8.10;51.30;;;;;;5106553;28;20192;-67
2021/01/18 11:22:58;;;;;;;;;;;8.10;50.80;;;;;;5106155;28;19948;-65
2021/01/18 11:25:27;;;;;;;;;;;8.10;50.90;;;;;;5105163;28;19908;-66
2021/01/18 11:27:53;;;;;;;;;;;8.00;51.30;;;;;;5106332;28;19907;-67
2021/01/18 11:30:19;;;;;;;;;;;8.00;51.10;;;;;;5106290;28;19908;-66
2021/01/18 11:32:44;;;;;;;;;;;8.00;51.00;;;;;;5105040;28;19900;-68
2021/01/18 11:35:11;;;;;;;;;;;8.00;51.60;;;;;;5106193;28;19900;-66
2021/01/18 11:37:37;;;;;;;;;;;8.10;51.00;;;;;;5106158;28;19900;-67
2021/01/18 11:40:07;;;;;;;;;;;8.10;51.10;;;;;;5106094;28;19946;-67
2021/01/18 11:42:33;;;;;;;;;;;8.20;50.90;;;;;;5106013;28;19953;-66
2021/01/18 11:45:07;;;;;;;;;;;8.10;51.60;;;;;;5106025;28;19940;-66
2021/01/18 11:47:34;;;;;;;;;;;8.20;50.90;;;;;;5105969;28;19986;-66
2021/01/18 11:50:00;;;;;;;;;;;8.20;50.80;;;;;;5106159;28;19923;-66
2021/01/18 11:52:26;;;;;;;;;;;8.10;50.80;;;;;;5106161;28;19915;-64
2021/01/18 11:54:51;;;;;;;;;;;8.10;51.50;;;;;;5105795;28;20227;-66
2021/01/18 11:57:17;;;;;;;;;;;8.10;51.10;;;;;;5105755;28;20095;-69
2021/01/18 11:59:42;;;;;;;;;;;8.00;51.70;;;;;;5105745;28;19908;-66
2021/01/18 12:02:08;;;;;;;;;;;8.00;51.90;;;;;;5105590;28;19912;-66
2021/01/18 12:04:34;;;;;;;;;;;8.00;52.00;;;;;;5105633;28;19908;-66
2021/01/18 12:06:59;;;;;;;;;;;8.00;51.60;;;;;;5105638;28;19907;-67
2021/01/18 12:09:25;;;;;;;;;;;8.10;51.20;;;;;;5105566;28;19907;-68
2021/01/18 12:11:50;;;;;;;;;;;8.10;51.10;;;;;;5105156;28;19931;-67
2021/01/18 12:14:16;;;;;;;;;;;8.10;51.00;;;;;;5105423;28;19915;-65
2021/01/18 12:16:41;;;;;;;;;;;8.00;51.40;;;;;;5105372;28;19907;-69
2021/01/18 12:19:14;;;;;;;;;;;8.00;52.10;;;;;;5105370;28;19900;-67
2021/01/18 12:21:43;;;;;;;;;;;8.00;51.70;;;;;;5105243;28;19904;-67
2021/01/18 12:24:09;;;;;;;;;;;8.00;51.20;;;;;;5105183;28;19926;-66
2021/01/18 12:26:34;;;;;;;;;;;8.00;51.20;;;;;;5105263;28;19931;-66
2021/01/18 12:29:00;;;;;;;;;;;8.00;51.60;;;;;;5105146;28;19908;-65
2021/01/18 12:31:26;;;;;;;;;;;8.10;51.20;;;;;;5105109;28;19977;-65
2021/01/18 12:33:53;;;;;;;;;;;8.10;51.30;;;;;;5105075;28;19915;-67
2021/01/18 12:36:18;;;;;;;;;;;8.10;51.70;;;;;;5105020;28;19908;-63
2021/01/18 12:38:44;;;;;;;;;;;8.20;51.00;;;;;;5104995;28;19906;-68
2021/01/18 12:41:10;;;;;;;;;;;8.20;51.10;;;;;;5104843;28;19972;-66
2021/01/18 12:43:36;;;;;;;;;;;8.10;50.80;;;;;;5104849;28;19908;-66
2021/01/18 12:46:02;;;;;;;;;;;8.10;51.30;;;;;;5104834;28;20189;-68
2021/01/18 12:48:27;;;;;;;;;;;8.00;52.00;;;;;;5104835;28;19900;-68
2021/01/18 12:50:53;;;;;;;;;;;8.00;51.70;;;;;;5104736;28;19975;-67
2021/01/18 12:56:03;;;;;;;;;;;8.10;52.00;;;;;;5104690;28;19907;-68
2021/01/18 12:58:28;;;;;;;;;;;8.20;51.40;;;;;;5104607;28;20108;-66
2021/01/18 13:00:54;;;;;;;;;;;8.20;51.00;;;;;;5104477;28;19900;-66
2021/01/18 13:03:19;;;;;;;;;;;8.20;51.30;;;;;;5104772;28;19907;-66
2021/01/18 13:05:45;;;;;;;;;;;8.30;50.70;;;;;;5104494;28;19900;-67
2021/01/18 13:08:11;;;;;;;;;;;8.30;50.70;;;;;;5104474;28;20136;-66
2021/01/18 13:10:37;;;;;;;;;;;8.30;50.80;;;;;;5104272;28;19900;-66
2021/01/18 13:13:03;;;;;;;;;;;8.30;51.30;;;;;;5104296;28;19944;-67
2021/01/18 13:15:29;;;;;;;;;;;8.10;51.70;;;;;;5104258;28;19912;-66
2021/01/18 13:17:54;;;;;;;;;;;8.20;51.90;;;;;;5104192;28;20250;-67
2021/01/18 13:20:21;;;;;;;;;;;8.40;51.40;;;;;;5104188;28;19931;-66
2021/01/18 13:22:46;;;;;;;;;;;8.40;50.50;;;;;;5103150;28;19920;-65
2021/01/18 13:25:12;;;;;;;;;;;8.40;50.70;;;;;;5104104;28;19900;-66
2021/01/18 13:27:37;;;;;;;;;;;8.30;50.90;;;;;;5104009;28;19900;-68
2021/01/18 13:30:03;;;;;;;;;;;8.20;50.90;;;;;;5104006;28;19908;-63
2021/01/18 13:32:30;;;;;;;;;;;8.20;51.10;;;;;;5103946;28;19912;-67
2021/01/18 13:34:55;;;;;;;;;;;8.20;51.40;;;;;;5103854;28;19900;-66
2021/01/18 13:37:21;;;;;;;;;;;8.30;51.40;;;;;;5103835;28;19950;-66
2021/01/18 13:39:46;;;;;;;;;;;8.20;51.80;;;;;;5103750;28;19915;-66
2021/01/18 13:42:12;;;;;;;;;;;8.20;52.00;;;;;;5103670;28;20092;-66
2021/01/18 13:44:38;;;;;;;;;;;8.20;52.00;;;;;;5103647;28;19904;-64
2021/01/18 13:47:04;;;;;;;;;;;8.10;52.00;;;;;;5103683;28;19912;-65
2021/01/18 13:49:31;;;;;;;;;;;8.20;51.40;;;;;;5103575;28;19899;-66
2021/01/18 13:51:56;;;;;;;;;;;8.20;51.40;;;;;;5103540;28;19939;-64
2021/01/18 13:54:22;;;;;;;;;;;8.20;51.40;;;;;;5103526;28;19923;-64
2021/01/18 13:56:52;;;;;;;;;;;8.20;51.40;;;;;;5103446;28;19919;-68
2021/01/18 13:59:18;;;;;;;;;;;8.10;51.90;;;;;;5103430;28;19900;-68
2021/01/18 14:01:43;;;;;;;;;;;8.10;51.40;;;;;;5103281;28;19918;-64
2021/01/18 14:04:10;;;;;;;;;;;8.00;52.40;;;;;;5103295;28;19938;-67
2021/01/18 14:06:39;;;;;;;;;;;7.90;52.80;;;;;;5103322;28;19932;-66
2021/01/18 14:09:07;;;;;;;;;;;7.90;53.00;;;;;;5103237;28;19900;-67
2021/01/18 14:11:43;;;;;;;;;;;7.80;53.10;;;;;;5103232;28;19900;-65
2021/01/18 14:14:09;;;;;;;;;;;7.80;53.10;;;;;;5104324;28;19975;-64
2021/01/18 14:16:35;;;;;;;;;;;7.90;53.10;;;;;;5103144;28;19900;-66
2021/01/18 14:19:01;;;;;;;;;;;7.90;53.10;;;;;;5103112;28;19907;-67
2021/01/18 14:21:27;;;;;;;;;;;7.90;53.00;;;;;;5102026;28;19912;-66
2021/01/18 14:23:54;;;;;;;;;;;7.90;52.30;;;;;;5102898;28;19912;-67
2021/01/18 14:26:21;;;;;;;;;;;7.80;52.10;;;;;;5102965;28;19973;-67
2021/01/18 14:28:46;;;;;;;;;;;7.80;52.30;;;;;;5102899;28;19908;-66
2021/01/18 14:31:18;;;;;;;;;;;7.80;52.50;;;;;;5102957;28;19936;-65
2021/01/18 14:33:44;;;;;;;;;;;7.80;52.90;;;;;;5102863;28;19912;-67
2021/01/18 14:36:13;;;;;;;;;;;7.70;53.30;;;;;;5102694;28;19900;-67
2021/01/18 14:38:39;;;;;;;;;;;7.70;53.70;;;;;;5102815;28;19908;-67